createdAt,value
2018-07-19T00:00:34.533Z,8.40
2018-07-19T00:03:09.589Z,8.73
2018-07-19T00:05:45.051Z,7.80
2018-07-19T00:08:20.875Z,7.67
2018-07-19T00:10:56.727Z,9.30
2018-07-19T00:13:32.082Z,9.37
2018-07-19T00:16:08.223Z,8.60
2018-07-19T00:18:44.215Z,8.10
2018-07-19T00:21:19.332Z,8.00
2018-07-19T00:23:54.560Z,8.73
2018-07-19T00:26:30.159Z,9.17
2018-07-19T00:29:05.468Z,8.90
2018-07-19T00:31:40.593Z,8.00
2018-07-19T00:34:15.905Z,7.80
2018-07-19T00:36:51.231Z,8.17
2018-07-19T00:39:26.862Z,8.33
2018-07-19T00:42:02.650Z,8.17
2018-07-19T00:44:38.393Z,8.00
2018-07-19T00:47:13.762Z,7.93
2018-07-19T00:49:49.834Z,7.53
2018-07-19T00:52:25.159Z,8.07
2018-07-19T00:55:00.409Z,8.20
2018-07-19T00:57:35.857Z,7.43
2018-07-19T01:00:12.046Z,8.00
2018-07-19T01:02:47.988Z,7.73
2018-07-19T01:05:23.244Z,8.70
2018-07-19T01:07:58.463Z,8.20
2018-07-19T01:10:34.313Z,8.77
2018-07-19T01:13:09.709Z,8.80
2018-07-19T01:15:45.103Z,9.00
2018-07-19T01:18:20.729Z,10.30
2018-07-19T01:20:56.163Z,9.43
2018-07-19T01:23:31.181Z,9.60
2018-07-19T01:26:06.693Z,9.20
2018-07-19T01:28:42.336Z,8.90
2018-07-19T01:31:18.010Z,9.30
2018-07-19T01:33:53.745Z,9.43
2018-07-19T01:36:28.979Z,9.37
2018-07-19T01:39:05.065Z,9.23
2018-07-19T01:42:20.654Z,10.13
2018-07-19T01:44:55.972Z,9.80
2018-07-19T01:47:31.214Z,9.27
2018-07-19T01:50:07.797Z,8.90
2018-07-19T01:52:43.126Z,9.93
2018-07-19T01:55:18.504Z,9.70
2018-07-19T01:57:53.587Z,10.30
2018-07-19T02:00:28.697Z,10.87
2018-07-19T02:03:04.466Z,10.03
2018-07-19T02:05:40.115Z,9.90
2018-07-19T02:08:16.701Z,9.80
2018-07-19T02:10:52.605Z,10.13
2018-07-19T02:13:28.073Z,10.27
2018-07-19T02:16:04.072Z,10.33
2018-07-19T02:18:39.851Z,10.20
2018-07-19T02:21:14.984Z,9.70
2018-07-19T02:23:50.080Z,9.50
2018-07-19T02:26:25.385Z,10.03
2018-07-19T02:29:01.112Z,9.90
2018-07-19T02:31:37.375Z,9.80
2018-07-19T02:34:13.051Z,9.77
2018-07-19T02:36:49.365Z,9.00
2018-07-19T02:39:24.705Z,9.57
2018-07-19T02:42:00.408Z,9.37
2018-07-19T02:44:35.997Z,9.43
2018-07-19T02:47:11.207Z,9.60
2018-07-19T02:49:46.578Z,9.80
2018-07-19T02:52:21.661Z,9.57
2018-07-19T02:54:57.012Z,9.37
2018-07-19T02:57:32.362Z,8.90
2018-07-19T03:00:07.809Z,9.30
2018-07-19T03:02:43.129Z,8.80
2018-07-19T03:05:18.435Z,9.60
2018-07-19T03:07:54.238Z,9.03
2018-07-19T03:10:29.694Z,8.67
2018-07-19T03:13:05.217Z,9.10
2018-07-19T03:15:40.396Z,9.37
2018-07-19T03:18:16.198Z,9.07
2018-07-19T03:20:50.997Z,9.20
2018-07-19T03:23:26.024Z,8.60
2018-07-19T03:26:01.227Z,8.90
2018-07-19T03:28:36.709Z,9.53
2018-07-19T03:31:12.017Z,9.70
2018-07-19T03:33:47.346Z,8.83
2018-07-19T03:36:23.848Z,8.90
2018-07-19T03:38:58.937Z,8.00
2018-07-19T03:41:33.563Z,8.93
2018-07-19T03:44:08.935Z,8.90
2018-07-19T03:46:44.122Z,8.70
2018-07-19T03:49:19.573Z,8.60
2018-07-19T03:51:55.148Z,9.03
2018-07-19T03:54:30.138Z,8.63
2018-07-19T03:57:05.894Z,9.17
2018-07-19T03:59:40.937Z,8.17
2018-07-19T04:02:16.310Z,8.60
2018-07-19T04:04:51.821Z,8.30
2018-07-19T04:07:27.207Z,8.30
2018-07-19T04:10:02.129Z,8.73
2018-07-19T04:12:37.687Z,8.07
2018-07-19T04:15:12.773Z,8.50
2018-07-19T04:17:52.819Z,8.20
2018-07-19T04:20:30.991Z,8.20
2018-07-19T04:23:06.511Z,8.10
2018-07-19T04:25:41.433Z,8.27
2018-07-19T04:28:16.616Z,8.70
2018-07-19T04:30:51.904Z,7.90
2018-07-19T04:33:27.568Z,8.53
2018-07-19T04:36:02.730Z,8.30
2018-07-19T04:38:37.784Z,8.40
2018-07-19T04:41:13.478Z,8.27
2018-07-19T04:43:49.227Z,8.60
2018-07-19T04:46:25.431Z,8.03
2018-07-19T04:49:00.654Z,8.73
2018-07-19T04:51:35.772Z,9.20
2018-07-19T04:54:11.047Z,8.80
2018-07-19T04:56:46.268Z,9.23
2018-07-19T04:59:21.356Z,8.93
2018-07-19T05:01:56.802Z,8.53
2018-07-19T05:04:32.404Z,9.40
2018-07-19T05:07:07.559Z,8.87
2018-07-19T05:09:42.955Z,9.43
2018-07-19T05:12:22.118Z,8.30
2018-07-19T05:14:57.958Z,9.00
2018-07-19T05:17:35.014Z,8.30
2018-07-19T05:20:10.658Z,8.60
2018-07-19T05:22:45.994Z,9.27
2018-07-19T05:25:21.160Z,8.70
2018-07-19T05:27:56.771Z,9.00
2018-07-19T05:30:32.492Z,8.57
2018-07-19T05:33:08.334Z,8.70
2018-07-19T05:35:44.714Z,8.80
2018-07-19T05:38:20.315Z,8.83
2018-07-19T05:40:55.500Z,9.20
2018-07-19T05:43:31.047Z,8.53
2018-07-19T05:46:07.217Z,10.07
2018-07-19T05:48:43.070Z,9.13
2018-07-19T05:51:18.740Z,9.47
2018-07-19T05:53:53.900Z,8.33
2018-07-19T05:56:29.524Z,10.27
2018-07-19T05:59:04.984Z,11.07
2018-07-19T06:01:40.418Z,14.70
2018-07-19T06:04:15.689Z,14.40
2018-07-19T06:06:51.176Z,13.40
2018-07-19T06:09:26.223Z,13.70
2018-07-19T06:12:02.245Z,14.73
2018-07-19T06:14:37.467Z,12.60
2018-07-19T06:17:13.386Z,16.43
2018-07-19T06:19:48.777Z,15.67
2018-07-19T06:22:24.589Z,15.13
2018-07-19T06:25:00.668Z,15.00
2018-07-19T06:27:36.740Z,14.40
2018-07-19T06:30:12.887Z,12.63
2018-07-19T06:32:48.751Z,11.77
2018-07-19T06:35:24.372Z,11.00
2018-07-19T06:38:00.085Z,11.27
2018-07-19T06:40:35.473Z,11.30
2018-07-19T06:43:11.184Z,10.27
2018-07-19T06:45:47.487Z,11.07
2018-07-19T06:48:23.282Z,10.93
2018-07-19T06:50:58.497Z,10.17
2018-07-19T06:53:34.426Z,10.90
2018-07-19T06:56:09.819Z,10.60
2018-07-19T06:58:45.743Z,9.90
2018-07-19T07:01:20.981Z,11.20
2018-07-19T07:03:56.453Z,10.10
2018-07-19T07:06:31.376Z,10.60
2018-07-19T07:09:09.813Z,10.10
2018-07-19T07:11:44.907Z,11.47
2018-07-19T07:14:20.764Z,9.80
2018-07-19T07:16:56.176Z,10.57
2018-07-19T07:19:31.802Z,10.30
2018-07-19T07:22:06.947Z,11.00
2018-07-19T07:24:44.307Z,11.07
2018-07-19T07:27:21.667Z,11.10
2018-07-19T07:30:08.550Z,10.17
2018-07-19T07:32:46.279Z,10.40
2018-07-19T07:35:28.164Z,10.70
2018-07-19T07:38:04.676Z,10.60
2018-07-19T07:40:42.562Z,11.30
2018-07-19T07:43:20.032Z,11.30
2018-07-19T07:45:55.690Z,11.07
2018-07-19T07:48:34.550Z,10.40
2018-07-19T07:51:10.387Z,9.80
2018-07-19T07:53:45.945Z,9.90
2018-07-19T07:56:21.863Z,10.80
2018-07-19T07:58:57.140Z,10.80
2018-07-19T08:01:32.380Z,10.60
2018-07-19T08:04:07.911Z,10.93
2018-07-19T08:06:44.067Z,10.70
2018-07-19T08:09:19.710Z,10.00
2018-07-19T08:11:55.057Z,9.30
2018-07-19T08:14:30.173Z,10.40
2018-07-19T08:17:06.141Z,10.33
2018-07-19T08:19:41.585Z,10.23
2018-07-19T08:22:16.659Z,11.40
2018-07-19T08:24:52.103Z,10.93
2018-07-19T08:27:27.304Z,9.80
2018-07-19T08:30:03.176Z,10.30
2018-07-19T08:32:38.661Z,9.50
2018-07-19T08:35:18.398Z,9.70
2018-07-19T08:37:53.928Z,10.60
2018-07-19T08:40:29.224Z,10.20
2018-07-19T08:43:05.015Z,8.57
2018-07-19T08:45:41.139Z,9.17
2018-07-19T08:48:16.246Z,9.10
2018-07-19T08:50:51.898Z,9.10
2018-07-19T08:53:26.933Z,9.03
2018-07-19T08:56:02.137Z,9.07
2018-07-19T08:58:37.770Z,7.87
2018-07-19T09:01:13.253Z,7.93
2018-07-19T09:03:49.336Z,7.70
2018-07-19T09:06:24.616Z,7.67
2018-07-19T09:09:00.268Z,8.20
2018-07-19T09:11:36.390Z,7.97
2018-07-19T09:14:11.813Z,7.87
2018-07-19T09:16:56.172Z,7.73
2018-07-19T09:19:35.463Z,7.70
2018-07-19T09:22:13.344Z,7.83
2018-07-19T09:24:48.745Z,8.47
2018-07-19T09:27:25.388Z,8.43
2018-07-19T09:30:03.601Z,7.33
2018-07-19T09:32:47.212Z,7.40
2018-07-19T09:35:22.308Z,7.60
2018-07-19T09:37:59.118Z,6.50
2018-07-19T09:40:34.827Z,6.63
2018-07-19T09:43:10.007Z,7.00
2018-07-19T09:45:49.402Z,6.17
2018-07-19T09:48:25.195Z,6.37
2018-07-19T09:51:00.380Z,6.17
2018-07-19T09:53:35.779Z,6.90
2018-07-19T09:56:11.003Z,6.70
2018-07-19T09:58:46.212Z,6.33
2018-07-19T10:01:22.020Z,6.03
2018-07-19T10:03:57.145Z,6.50
2018-07-19T10:06:31.962Z,6.47
2018-07-19T10:09:08.050Z,6.27
2018-07-19T10:11:43.018Z,5.47
2018-07-19T10:14:19.315Z,6.20
2018-07-19T10:16:55.305Z,5.67
2018-07-19T10:19:30.564Z,5.33
2018-07-19T10:22:05.723Z,5.80
2018-07-19T10:24:41.567Z,5.60
2018-07-19T10:27:17.332Z,5.67
2018-07-19T10:29:52.589Z,6.40
2018-07-19T10:32:27.911Z,5.60
2018-07-19T10:35:03.274Z,6.10
2018-07-19T10:37:38.272Z,6.13
2018-07-19T10:40:13.886Z,6.47
2018-07-19T10:42:49.180Z,6.20
2018-07-19T10:45:23.881Z,6.63
2018-07-19T10:48:03.743Z,6.77
2018-07-19T10:50:38.792Z,6.93
2018-07-19T10:53:14.064Z,6.67
2018-07-19T10:55:49.292Z,6.73
2018-07-19T10:58:25.277Z,6.67
2018-07-19T11:01:00.894Z,6.53
2018-07-19T11:03:36.095Z,6.93
2018-07-19T11:06:11.050Z,7.53
2018-07-19T11:08:45.738Z,7.50
2018-07-19T11:11:21.829Z,7.37
2018-07-19T11:13:57.267Z,7.50
2018-07-19T11:16:32.755Z,7.23
2018-07-19T11:19:08.610Z,7.83
2018-07-19T11:21:43.721Z,7.90
2018-07-19T11:24:19.135Z,7.10
2018-07-19T11:26:54.045Z,6.40
2018-07-19T11:29:29.765Z,6.03
2018-07-19T11:32:04.751Z,6.90
2018-07-19T11:34:39.894Z,7.10
2018-07-19T11:37:15.522Z,6.80
2018-07-19T11:39:50.461Z,6.50
2018-07-19T11:42:26.056Z,6.97
2018-07-19T11:45:01.361Z,6.20
2018-07-19T11:47:35.928Z,6.03
2018-07-19T11:50:11.110Z,6.00
2018-07-19T11:52:46.032Z,5.87
2018-07-19T11:55:21.598Z,6.10
2018-07-19T11:57:56.610Z,6.20
2018-07-19T12:00:31.685Z,6.93
2018-07-19T12:03:07.929Z,7.10
2018-07-19T12:05:43.016Z,7.10
2018-07-19T12:08:18.020Z,7.00
2018-07-19T12:10:53.168Z,7.60
2018-07-19T12:13:28.181Z,6.30
2018-07-19T12:16:03.755Z,6.50
2018-07-19T12:18:39.438Z,6.93
2018-07-19T12:21:14.493Z,6.70
2018-07-19T12:23:49.555Z,6.90
2018-07-19T12:26:25.451Z,7.00
2018-07-19T12:29:00.121Z,6.77
2018-07-19T12:31:35.034Z,7.50
2018-07-19T12:34:10.180Z,7.47
2018-07-19T12:36:45.416Z,6.20
2018-07-19T12:39:20.888Z,7.00
2018-07-19T12:41:55.907Z,7.20
2018-07-19T12:44:30.576Z,6.93
2018-07-19T12:47:05.844Z,7.00
2018-07-19T12:49:40.797Z,7.30
2018-07-19T12:52:17.595Z,6.80
2018-07-19T12:54:53.047Z,7.43
2018-07-19T12:57:38.749Z,6.83
2018-07-19T13:00:39.788Z,6.70
2018-07-19T13:03:34.917Z,6.90
2018-07-19T13:06:10.197Z,7.63
2018-07-19T13:08:48.241Z,7.43
2018-07-19T13:11:25.709Z,6.83
2018-07-19T13:14:02.503Z,7.90
2018-07-19T13:16:39.849Z,7.20
2018-07-19T13:19:16.499Z,7.93
2018-07-19T13:21:54.971Z,7.43
2018-07-19T13:24:31.370Z,7.83
2018-07-19T13:27:07.715Z,7.70
2018-07-19T13:29:42.688Z,7.77
2018-07-19T13:32:19.451Z,7.90
2018-07-19T13:34:57.349Z,7.50
2018-07-19T13:37:32.348Z,7.47
2018-07-19T13:40:08.423Z,7.93
2018-07-19T13:42:43.434Z,7.50
2018-07-19T13:45:12.984Z,7.20
2018-07-19T13:47:42.233Z,6.90
2018-07-19T13:50:12.378Z,7.47
2018-07-19T13:52:53.159Z,7.53
2018-07-19T13:55:23.250Z,7.53
2018-07-19T13:57:58.463Z,7.07
2018-07-19T14:00:33.301Z,7.33
2018-07-19T14:03:08.577Z,7.37
2018-07-19T14:05:43.743Z,7.50
2018-07-19T14:08:18.843Z,7.77
2018-07-19T14:10:54.338Z,7.70
2018-07-19T14:13:29.476Z,7.30
2018-07-19T14:16:04.521Z,7.13
2018-07-19T14:18:40.197Z,6.67
2018-07-19T14:21:15.326Z,7.07
2018-07-19T14:23:50.247Z,7.20
2018-07-19T14:26:23.119Z,6.97
2018-07-19T14:28:58.384Z,7.17
2018-07-19T14:31:33.771Z,7.40
2018-07-19T14:34:08.788Z,7.27
2018-07-19T14:36:44.028Z,7.80
2018-07-19T14:39:19.232Z,7.00
2018-07-19T14:41:54.521Z,7.50
2018-07-19T14:44:30.543Z,7.83
2018-07-19T14:47:00.155Z,7.30
2018-07-19T14:49:35.192Z,7.47
2018-07-19T14:52:10.718Z,7.60
2018-07-19T14:54:45.870Z,7.43
2018-07-19T14:57:21.261Z,7.20
2018-07-19T14:59:56.640Z,7.97
2018-07-19T15:02:32.165Z,7.67
2018-07-19T15:05:07.810Z,7.77
2018-07-19T15:07:37.751Z,7.43
2018-07-19T15:10:13.048Z,7.13
2018-07-19T15:12:48.459Z,7.20
2018-07-19T15:15:24.290Z,7.70
2018-07-19T15:17:59.517Z,7.40
2018-07-19T15:20:35.077Z,7.67
2018-07-19T15:23:10.763Z,7.27
2018-07-19T15:25:45.951Z,7.80
2018-07-19T15:28:27.013Z,7.47
2018-07-19T15:31:02.864Z,7.50
2018-07-19T15:33:39.716Z,6.60
2018-07-19T15:36:14.765Z,8.37
2018-07-19T15:38:50.343Z,7.27
2018-07-19T15:41:26.546Z,7.00
2018-07-19T15:44:01.479Z,7.07
2018-07-19T15:46:42.910Z,7.03
2018-07-19T15:49:18.083Z,6.73
2018-07-19T15:51:53.295Z,7.10
2018-07-19T15:54:28.910Z,7.70
2018-07-19T15:57:04.688Z,7.00
2018-07-19T15:59:40.921Z,7.20
2018-07-19T16:02:16.213Z,7.03
2018-07-19T16:04:51.516Z,7.33
2018-07-19T16:07:26.497Z,7.70
2018-07-19T16:10:01.623Z,7.90
2018-07-19T16:12:36.828Z,8.23
2018-07-19T16:15:11.858Z,8.43
2018-07-19T16:17:46.897Z,8.00
2018-07-19T16:20:22.924Z,7.53
2018-07-19T16:22:57.977Z,8.40
2018-07-19T16:25:33.202Z,7.63
2018-07-19T16:28:08.514Z,7.90
2018-07-19T16:30:48.088Z,8.37
2018-07-19T16:33:23.331Z,7.97
2018-07-19T16:35:58.952Z,7.47
2018-07-19T16:38:34.598Z,7.87
2018-07-19T16:41:10.409Z,7.30
2018-07-19T16:43:45.656Z,7.23
2018-07-19T16:46:20.665Z,7.37
2018-07-19T16:48:56.513Z,6.97
2018-07-19T16:51:31.805Z,7.53
2018-07-19T16:54:07.850Z,7.03
2018-07-19T16:56:43.109Z,7.70
2018-07-19T16:59:18.521Z,7.30
2018-07-19T17:01:53.890Z,7.07
2018-07-19T17:04:29.267Z,7.10
2018-07-19T17:07:04.585Z,7.60
2018-07-19T17:09:40.059Z,8.37
2018-07-19T17:12:15.712Z,7.83
2018-07-19T17:14:50.976Z,6.70
2018-07-19T17:17:21.750Z,7.57
2018-07-19T17:20:01.218Z,7.07
2018-07-19T17:22:36.557Z,7.57
2018-07-19T17:25:11.509Z,7.07
2018-07-19T17:27:47.709Z,7.33
2018-07-19T17:30:22.756Z,7.30
2018-07-19T17:32:58.819Z,5.80
2018-07-19T17:35:33.950Z,6.57
2018-07-19T17:38:03.465Z,6.87
2018-07-19T17:40:39.207Z,6.10
2018-07-19T17:43:14.816Z,6.70
2018-07-19T17:45:50.198Z,6.70
2018-07-19T17:48:25.595Z,6.80
2018-07-19T17:51:01.221Z,7.17
2018-07-19T17:53:36.501Z,6.40
2018-07-19T17:56:11.645Z,6.73
2018-07-19T17:58:47.652Z,7.00
2018-07-19T18:01:23.799Z,6.20
2018-07-19T18:03:59.899Z,6.57
2018-07-19T18:06:36.232Z,6.10
2018-07-19T18:09:08.303Z,6.93
2018-07-19T18:11:44.333Z,6.47
2018-07-19T18:14:19.672Z,6.83
2018-07-19T18:16:55.621Z,6.73
2018-07-19T18:19:32.192Z,6.33
2018-07-19T18:22:09.339Z,6.47
2018-07-19T18:24:44.918Z,7.07
2018-07-19T18:27:21.000Z,6.03
2018-07-19T18:29:50.656Z,6.77
2018-07-19T18:32:27.752Z,6.40
2018-07-19T18:35:05.273Z,7.97
2018-07-19T18:37:40.728Z,6.50
2018-07-19T18:40:21.185Z,6.97
2018-07-19T18:42:56.877Z,6.60
2018-07-19T18:45:33.922Z,7.90
2018-07-19T18:48:09.762Z,6.93
2018-07-19T18:50:46.105Z,7.30
2018-07-19T18:53:22.530Z,8.00
2018-07-19T18:55:57.998Z,7.73
2018-07-19T18:58:34.197Z,7.90
2018-07-19T19:01:10.025Z,7.70
2018-07-19T19:03:47.362Z,7.50
2018-07-19T19:06:24.055Z,8.00
2018-07-19T19:09:00.490Z,7.70
2018-07-19T19:11:32.246Z,7.43
2018-07-19T19:14:01.369Z,7.50
2018-07-19T19:16:30.821Z,6.87
2018-07-19T19:19:00.273Z,7.83
2018-07-19T19:21:29.867Z,8.10
2018-07-19T19:23:59.705Z,8.00
2018-07-19T19:26:29.637Z,8.70
2018-07-19T19:28:59.339Z,7.93
2018-07-19T19:31:28.867Z,8.70
2018-07-19T19:33:58.322Z,9.40
2018-07-19T19:36:33.856Z,8.37
2018-07-19T19:39:11.908Z,8.80
2018-07-19T19:41:42.131Z,8.87
2018-07-19T19:44:12.520Z,9.57
2018-07-19T19:46:42.313Z,9.10
2018-07-19T19:49:12.153Z,9.70
2018-07-19T19:51:41.904Z,10.97
2018-07-19T19:54:11.281Z,11.20
2018-07-19T19:56:41.621Z,10.33
2018-07-19T19:59:16.776Z,11.70
2018-07-19T20:01:52.609Z,10.40
2018-07-19T20:04:28.358Z,11.10
2018-07-19T20:06:59.185Z,11.33
2018-07-19T20:09:35.061Z,11.07
2018-07-19T20:12:10.193Z,10.70
2018-07-19T20:14:45.756Z,11.43
2018-07-19T20:17:21.124Z,11.90
2018-07-19T20:19:56.171Z,11.30
2018-07-19T20:22:31.299Z,11.70
2018-07-19T20:25:07.345Z,11.67
2018-07-19T20:27:42.828Z,12.60
2018-07-19T20:30:17.709Z,12.83
2018-07-19T20:32:53.139Z,12.50
2018-07-19T20:35:28.644Z,12.80
2018-07-19T20:38:04.402Z,13.60
2018-07-19T20:40:39.654Z,12.17
2018-07-19T20:43:14.610Z,12.67
2018-07-19T20:45:50.788Z,12.40
2018-07-19T20:48:26.885Z,11.40
2018-07-19T20:51:02.736Z,11.80
2018-07-19T20:53:37.515Z,11.50
2018-07-19T20:56:12.548Z,11.20
2018-07-19T20:58:47.952Z,10.80
2018-07-19T21:01:23.633Z,10.20
2018-07-19T21:03:59.241Z,9.50
2018-07-19T21:06:34.582Z,8.87
2018-07-19T21:09:11.576Z,9.23
2018-07-19T21:11:47.352Z,8.70
2018-07-19T21:14:22.769Z,8.97
2018-07-19T21:16:52.485Z,9.03
2018-07-19T21:19:28.894Z,8.40
2018-07-19T21:22:03.987Z,8.90
2018-07-19T21:24:39.684Z,7.43
2018-07-19T21:27:14.686Z,8.17
2018-07-19T21:29:49.629Z,9.23
2018-07-19T21:32:25.146Z,9.20
2018-07-19T21:35:05.760Z,8.90
2018-07-19T21:37:41.146Z,8.40
2018-07-19T21:40:15.892Z,9.03
2018-07-19T21:42:50.958Z,8.90
2018-07-19T21:45:21.516Z,8.83
2018-07-19T21:47:56.659Z,8.30
2018-07-19T21:50:32.688Z,8.67
2018-07-19T21:53:07.835Z,7.60
2018-07-19T21:55:43.079Z,9.37
2018-07-19T21:58:18.168Z,8.20
2018-07-19T22:00:58.318Z,7.63
2018-07-19T22:03:33.762Z,7.70
2018-07-19T22:06:09.521Z,7.20
2018-07-19T22:08:44.688Z,7.43
2018-07-19T22:11:19.338Z,7.87
2018-07-19T22:13:53.937Z,6.97
2018-07-19T22:16:29.093Z,7.60
2018-07-19T22:19:04.195Z,7.37
2018-07-19T22:21:40.181Z,7.10
2018-07-19T22:24:15.304Z,5.83
2018-07-19T22:26:50.531Z,6.33
2018-07-19T22:29:26.585Z,6.30
2018-07-19T22:32:02.376Z,5.43
2018-07-19T22:34:37.458Z,5.17
2018-07-19T22:37:12.427Z,5.00
2018-07-19T22:39:47.830Z,5.00
2018-07-19T22:42:22.378Z,4.90
2018-07-19T22:44:57.948Z,4.80
2018-07-19T22:47:33.652Z,4.73
2018-07-19T22:50:09.019Z,4.10
2018-07-19T22:52:44.171Z,4.63
2018-07-19T22:55:20.249Z,4.53
2018-07-19T22:57:56.162Z,4.57
2018-07-19T23:00:31.060Z,4.73
2018-07-19T23:03:06.773Z,5.10
2018-07-19T23:05:42.123Z,5.10
2018-07-19T23:08:17.119Z,5.40
2018-07-19T23:10:52.329Z,4.63
2018-07-19T23:13:27.463Z,5.20
2018-07-19T23:16:02.240Z,5.20
2018-07-19T23:18:37.325Z,4.80
2018-07-19T23:21:12.547Z,5.30
2018-07-19T23:23:47.685Z,4.83
2018-07-19T23:26:22.341Z,5.47
2018-07-19T23:28:57.478Z,5.23
2018-07-19T23:31:32.539Z,4.80
2018-07-19T23:34:07.971Z,5.07
2018-07-19T23:37:00.911Z,5.47
2018-07-19T23:39:41.287Z,5.00
2018-07-19T23:42:22.476Z,5.40
2018-07-19T23:47:05.293Z,4.90
2018-07-19T23:49:35.460Z,5.40
2018-07-19T23:52:10.888Z,5.10
2018-07-19T23:54:46.432Z,5.80
2018-07-19T23:57:21.644Z,5.20
2018-07-19T23:59:56.792Z,5.67
